Aérodrome :
LOGIN :

S'inscrire | Disclaimer

   EN    FR    IT 

 










Légende :    VFR   VFR Marginal   IFR   IFR Intensif   IFR Très Intensif
Visi : 
Plafond : 
>= 8 km
>= 3000ft
5 à 8 km
1000 à 3000 ft
1500m à 5 km
500 à 1000 ft
800 à 1500m
200 à 500 ft
< 800m
< 200 ft
Symboles :   Orages  Brouillard  Fortes neiges  Fortes précipitations  Vent > 20 kt
SIGMETs :   Divers  Orages  Givrage  Turbulence  Onde Orograph.  Cendres Volcan.






- Altitude de l'aérodrome : 137 ft


LIPS - Istrana AFB Treviso

DERNIER METAR :
  • 122055Z 04002KT CAVOK 25/23 Q1015 RMK BKN BKN200 VIS MIN 9999 WIND THR26 01002KT WIND THR08 05002KT BLU

METARs EXPIRÉS :
  • 121955Z 14002KT CAVOK 26/23 Q1015 RMK BKN BKN200 VIS MIN 9999 WIND THR26 00000KT WIND THR08 12002KT BLU
  • 121855Z 16003KT CAVOK 27/22 Q1015 RMK BKN BKN200 VIS MIN 9999 WIND THR26 00000KT WIND THR08 17002KT BLU

TAF TAF LIPS
Valide du 12 à 21h jusqu'au 13 à 06h UTC


122000Z 1221/1306 06005KT CAVOK



MET'MAP, la Météo Aéronautique d'un coup d'oeil ! - Copyright ORBIFLY Décembre 2007 - Disclaimer

ORBIFLY MET'MAP TEAM :

Programmation & Développement : Alexandra Zaïnal
Sur une idée originale de : Baudouin d'Aumeries
Assistance à la programmation : Marc-Olivier Méhu
Soutien technique & logistique : Manuel Goepfert

Contact : metmap@orbifly.com




SOURCES & CREDITS :

   NOAA